Time;durP1;ratioP1;P1;durP2;ratioP2;P2;SDS_P1;SDS_P2;PMS_P1;PMS_P2;Temp;Humidity;BMP_temperature;BMP_pressure;BME280_temperature;BME280_humidity;BME280_pressure;Samples;Min_cycle;Max_cycle;Signal;HPM_P1;HPM_P2
2021/10/15 00:00:12;;;;;;;16.40;9.63;;;;;;;5.66;65.02;101283.17;1703165;83;21050;-57
2021/10/15 00:02:39;;;;;;;15.20;9.50;;;;;;;5.64;65.00;101279.31;1697278;83;20985;-57
2021/10/15 00:05:07;;;;;;;16.27;9.58;;;;;;;5.64;65.08;101283.23;1702496;83;21103;-57
2021/10/15 00:07:33;;;;;;;19.45;10.53;;;;;;;5.62;64.95;101274.63;1699699;83;21088;-58
2021/10/15 00:10:00;;;;;;;16.30;10.05;;;;;;;5.59;64.85;101273.45;1701120;83;20993;-57
2021/10/15 00:12:28;;;;;;;15.18;9.73;;;;;;;5.54;64.79;101279.34;1701751;83;21084;-57
2021/10/15 00:14:55;;;;;;;15.35;8.70;;;;;;;5.46;64.91;101275.75;1695160;83;21040;-57
2021/10/15 00:17:21;;;;;;;14.70;9.18;;;;;;;5.42;64.92;101278.59;1701833;83;21563;-57
2021/10/15 00:19:48;;;;;;;16.35;10.03;;;;;;;5.33;64.97;101275.47;1701871;83;21111;-57
2021/10/15 00:22:14;;;;;;;16.90;9.18;;;;;;;5.27;65.04;101273.12;1702177;83;21064;-57
2021/10/15 00:24:41;;;;;;;17.60;8.90;;;;;;;5.20;65.14;101270.39;1698076;83;21995;-57
2021/10/15 00:27:07;;;;;;;13.25;8.58;;;;;;;5.18;65.14;101267.01;1698590;83;21971;-57
2021/10/15 00:29:37;;;;;;;14.63;8.85;;;;;;;5.23;65.13;101272.00;1692887;84;21022;-57
2021/10/15 00:32:06;;;;;;;13.22;8.35;;;;;;;5.25;65.17;101271.03;1689209;84;21034;-58
2021/10/15 00:34:33;;;;;;;15.28;8.98;;;;;;;5.28;65.13;101264.38;1687149;84;21494;-57
2021/10/15 00:36:59;;;;;;;13.62;9.45;;;;;;;5.30;65.16;101263.02;1702164;83;21122;-57
2021/10/15 00:39:25;;;;;;;14.85;8.70;;;;;;;5.31;65.33;101262.08;1739947;81;21550;-57
2021/10/15 00:41:51;;;;;;;17.90;9.88;;;;;;;5.31;65.30;101259.04;1713816;81;22632;-57
2021/10/15 00:44:18;;;;;;;15.35;9.13;;;;;;;5.32;65.25;101264.63;1725858;81;21778;-57
2021/10/15 00:46:44;;;;;;;22.45;10.78;;;;;;;5.32;65.66;101260.71;1722000;81;21158;-57
2021/10/15 00:49:12;;;;;;;16.32;9.18;;;;;;;5.32;65.91;101264.63;1715525;83;21206;-57
2021/10/15 00:51:42;;;;;;;16.42;9.68;;;;;;;5.31;66.02;101264.25;1705966;83;20961;-57
2021/10/15 00:54:12;;;;;;;14.68;9.28;;;;;;;5.28;66.10;101262.21;1694494;83;21051;-56
2021/10/15 00:56:38;;;;;;;16.65;9.70;;;;;;;5.25;66.21;101262.38;1718239;83;21099;-56
2021/10/15 00:59:04;;;;;;;15.72;9.55;;;;;;;5.20;66.28;101267.31;1728995;82;21590;-56
2021/10/15 01:01:32;;;;;;;17.62;9.45;;;;;;;5.20;66.22;101266.02;1734029;82;21118;-57
2021/10/15 01:04:01;;;;;;;17.07;9.43;;;;;;;5.28;66.11;101260.47;1709130;82;21035;-56
2021/10/15 01:06:30;;;;;;;15.80;9.55;;;;;;;5.35;65.99;101257.97;1727454;81;21045;-57
2021/10/15 01:08:56;;;;;;;17.62;9.15;;;;;;;5.40;65.76;101260.39;1736704;82;21077;-57
2021/10/15 01:11:23;;;;;;;14.85;10.28;;;;;;;5.40;65.53;101261.69;1731868;82;21063;-56
2021/10/15 01:13:50;;;;;;;16.70;10.18;;;;;;;5.35;65.43;101264.50;1731688;82;23315;-57
2021/10/15 01:16:17;;;;;;;15.98;9.30;;;;;;;5.32;65.36;101267.70;1692511;83;21034;-57
2021/10/15 01:18:44;;;;;;;15.93;11.03;;;;;;;5.28;65.50;101260.91;1728986;82;21102;-57
2021/10/15 01:21:11;;;;;;;15.95;10.32;;;;;;;5.23;65.56;101265.48;1732670;82;21041;-57
2021/10/15 01:23:39;;;;;;;18.25;9.80;;;;;;;5.19;65.34;101260.86;1707158;82;21031;-57
2021/10/15 01:26:06;;;;;;;14.45;9.15;;;;;;;5.14;65.13;101255.83;1686006;83;21054;-57
2021/10/15 01:28:34;;;;;;;16.32;10.43;;;;;;;5.06;64.94;101251.86;1724106;82;21101;-56
2021/10/15 01:31:01;;;;;;;17.32;10.45;;;;;;;4.97;64.84;101255.25;1733526;82;21075;-57
2021/10/15 01:33:27;;;;;;;16.10;9.73;;;;;;;4.87;64.93;101251.34;1714061;83;21018;-57
2021/10/15 01:35:53;;;;;;;15.60;9.65;;;;;;;4.82;64.95;101245.05;1750524;81;21050;-57
2021/10/15 01:38:20;;;;;;;14.75;9.43;;;;;;;4.87;64.92;101241.38;1712361;82;21593;-58
2021/10/15 01:40:46;;;;;;;16.30;9.00;;;;;;;4.93;64.90;101248.48;1741679;80;21307;-58
2021/10/15 01:43:25;;;;;;;12.75;8.18;;;;;;;4.97;64.98;101247.43;1747128;81;21027;-57
2021/10/15 01:45:52;;;;;;;19.00;9.78;;;;;;;5.01;65.02;101241.19;1745938;81;21070;-57
2021/10/15 01:48:19;;;;;;;15.53;10.20;;;;;;;5.01;64.95;101243.80;1747336;81;21117;-57
2021/10/15 01:50:46;;;;;;;16.25;10.48;;;;;;;5.00;64.70;101250.37;1740161;81;21942;-56
2021/10/15 01:53:12;;;;;;;17.42;10.18;;;;;;;4.93;64.64;101253.70;1739460;81;21125;-58
2021/10/15 01:55:39;;;;;;;16.35;9.68;;;;;;;4.90;64.63;101256.44;1737365;80;21102;-58
2021/10/15 01:58:06;;;;;;;15.90;9.73;;;;;;;4.84;64.65;101256.69;1740238;81;21154;-59
2021/10/15 02:00:33;;;;;;;16.77;10.15;;;;;;;4.77;64.61;101255.25;1735718;81;21054;-57
2021/10/15 02:03:00;;;;;;;19.37;10.75;;;;;;;4.69;64.60;101262.55;1734320;81;21519;-58
2021/10/15 02:05:26;;;;;;;18.12;10.98;;;;;;;4.61;64.70;101257.20;1741216;81;21081;-58
2021/10/15 02:07:52;;;;;;;22.07;13.08;;;;;;;4.57;65.23;101262.59;1739465;81;21463;-58
2021/10/15 02:10:20;;;;;;;20.62;11.75;;;;;;;4.53;65.78;101261.88;1699461;82;21104;-58
2021/10/15 02:12:48;;;;;;;19.02;11.50;;;;;;;4.58;66.03;101267.75;1662590;84;21004;-62
2021/10/15 02:15:15;;;;;;;17.85;11.50;;;;;;;4.65;66.11;101263.97;1691438;84;21074;-59
2021/10/15 02:17:41;;;;;;;18.07;10.75;;;;;;;4.73;66.23;101265.44;1693619;84;21048;-58
2021/10/15 02:20:12;;;;;;;18.92;10.78;;;;;;;4.80;66.29;101257.27;1692532;83;21072;-58
2021/10/15 02:22:43;;;;;;;18.20;11.05;;;;;;;4.88;66.28;101259.57;1689574;84;21478;-56
2021/10/15 02:25:11;;;;;;;20.55;10.80;;;;;;;4.91;66.16;101264.66;1655076;84;21016;-57
2021/10/15 02:27:37;;;;;;;19.70;11.12;;;;;;;4.92;65.82;101259.82;1683272;84;21230;-58
2021/10/15 02:30:06;;;;;;;19.65;11.53;;;;;;;4.90;65.57;101259.52;1678076;83;21074;-58
2021/10/15 02:32:33;;;;;;;21.52;12.50;;;;;;;4.87;65.82;101260.47;1655432;84;21166;-58
2021/10/15 02:34:59;;;;;;;19.52;11.68;;;;;;;4.84;65.98;101250.16;1674854;84;21077;-58
2021/10/15 02:37:25;;;;;;;19.40;12.33;;;;;;;4.81;66.06;101251.63;1652721;84;21592;-58
2021/10/15 02:39:52;;;;;;;20.92;12.18;;;;;;;4.77;66.11;101248.27;1715907;81;21153;-56
2021/10/15 02:42:18;;;;;;;20.45;12.13;;;;;;;4.75;66.15;101243.58;1737854;80;20996;-57
2021/10/15 02:44:44;;;;;;;22.10;11.57;;;;;;;4.72;66.20;101249.39;1738936;80;21091;-57
2021/10/15 02:48:24;;;;;;;19.02;11.55;;;;;;;4.79;65.91;101252.99;1795851;77;22377;-57
2021/10/15 02:50:51;;;;;;;19.45;10.90;;;;;;;4.81;65.84;101252.92;1766150;80;20992;-61
2021/10/15 02:53:18;;;;;;;18.20;11.00;;;;;;;4.87;65.76;101256.56;1770152;80;21582;-56
2021/10/15 02:55:45;;;;;;;19.65;12.05;;;;;;;4.91;65.51;101249.02;1746457;80;21052;-57
2021/10/15 02:58:11;;;;;;;20.30;11.90;;;;;;;4.88;65.45;101254.36;1765339;80;21081;-59
2021/10/15 03:00:39;;;;;;;21.20;11.68;;;;;;;4.85;65.51;101253.17;1747117;80;21070;-61
2021/10/15 03:03:05;;;;;;;17.20;10.70;;;;;;;4.81;65.35;101258.98;1766529;80;21047;-57
2021/10/15 03:05:32;;;;;;;20.80;11.45;;;;;;;4.77;65.24;101260.47;1779415;78;21922;-58
2021/10/15 03:08:00;;;;;;;19.25;11.53;;;;;;;4.73;65.20;101262.83;1772439;80;21484;-58
2021/10/15 03:10:29;;;;;;;18.92;11.30;;;;;;;4.69;65.36;101269.06;1773016;78;20966;-57
2021/10/15 03:12:56;;;;;;;16.50;10.25;;;;;;;4.63;65.33;101261.89;1777627;80;21691;-57
2021/10/15 03:15:22;;;;;;;21.30;11.60;;;;;;;4.58;65.37;101260.39;1767560;80;22195;-57
2021/10/15 03:17:49;;;;;;;22.22;11.65;;;;;;;4.53;65.35;101260.57;1768314;78;21206;-58
2021/10/15 03:20:16;;;;;;;17.75;10.35;;;;;;;4.48;65.21;101264.29;1772272;80;21018;-59
2021/10/15 03:22:44;;;;;;;19.42;11.00;;;;;;;4.45;65.21;101267.84;1776718;78;21622;-57
2021/10/15 03:25:11;;;;;;;21.68;10.95;;;;;;;4.50;65.08;101267.67;1744280;80;21049;-57
2021/10/15 03:27:37;;;;;;;15.65;10.45;;;;;;;4.53;64.92;101271.46;1771212;80;21070;-57
2021/10/15 03:30:05;;;;;;;20.08;10.93;;;;;;;4.54;64.96;101267.49;1769941;80;23323;-57
2021/10/15 03:32:32;;;;;;;19.82;10.72;;;;;;;4.56;64.87;101261.76;1775184;78;21027;-56
2021/10/15 03:34:58;;;;;;;17.75;10.93;;;;;;;4.51;64.96;101254.58;1768399;78;21054;-56
2021/10/15 03:37:25;;;;;;;20.65;11.08;;;;;;;4.48;65.02;101246.87;1764524;80;21085;-56
2021/10/15 03:39:52;;;;;;;18.70;11.95;;;;;;;4.45;64.66;101250.91;1768617;78;21551;-58
2021/10/15 03:42:18;;;;;;;19.32;11.75;;;;;;;4.40;64.74;101255.00;1779959;80;21208;-58
2021/10/15 03:44:45;;;;;;;22.02;12.65;;;;;;;4.34;64.84;101251.36;1747644;80;21039;-59
2021/10/15 03:47:12;;;;;;;19.77;11.68;;;;;;;4.27;64.91;101263.78;1744566;78;21834;-58
2021/10/15 03:49:39;;;;;;;21.52;12.07;;;;;;;4.23;65.06;101263.48;1765021;80;21114;-58
2021/10/15 03:52:06;;;;;;;18.00;11.15;;;;;;;4.18;65.17;101265.43;1762847;78;21348;-58
2021/10/15 03:54:32;;;;;;;19.45;12.60;;;;;;;4.13;65.20;101267.36;1769236;78;22063;-57
2021/10/15 03:57:00;;;;;;;19.55;12.40;;;;;;;4.05;65.19;101268.11;1763686;80;21015;-57
2021/10/15 03:59:27;;;;;;;19.23;11.68;;;;;;;3.97;65.43;101271.03;1760756;80;21109;-58
2021/10/15 04:01:53;;;;;;;16.62;10.82;;;;;;;3.95;65.46;101270.68;1768154;78;21102;-58
2021/10/15 04:04:20;;;;;;;16.50;10.68;;;;;;;4.02;65.46;101269.56;1765954;80;21141;-58
2021/10/15 04:06:47;;;;;;;17.07;10.68;;;;;;;4.07;65.35;101263.72;1770257;78;21188;-58
2021/10/15 04:09:13;;;;;;;17.25;10.82;;;;;;;4.11;65.40;101269.19;1769215;80;21070;-57
2021/10/15 04:11:39;;;;;;;21.73;11.18;;;;;;;4.14;65.38;101266.94;1763802;78;21594;-57
2021/10/15 04:14:06;;;;;;;19.65;11.05;;;;;;;4.09;65.42;101269.25;1768891;78;21051;-57
2021/10/15 04:16:33;;;;;;;21.27;12.70;;;;;;;4.07;65.60;101267.63;1766241;80;21103;-57
2021/10/15 04:19:00;;;;;;;22.82;12.90;;;;;;;4.07;65.73;101275.44;1763297;80;21097;-57
2021/10/15 04:21:27;;;;;;;20.23;12.80;;;;;;;4.09;65.93;101289.24;1767766;78;21030;-57
2021/10/15 04:23:53;;;;;;;17.20;11.93;;;;;;;4.09;66.13;101284.03;1763141;80;21070;-58
2021/10/15 04:26:22;;;;;;;26.02;13.35;;;;;;;4.08;66.27;101288.41;1766117;78;21097;-58
2021/10/15 04:28:48;;;;;;;19.98;12.55;;;;;;;4.09;66.24;101290.55;1764992;78;21089;-58
2021/10/15 04:31:14;;;;;;;20.23;12.98;;;;;;;4.08;66.39;101290.14;1768404;80;21775;-58
2021/10/15 04:33:40;;;;;;;21.77;13.08;;;;;;;4.09;66.43;101284.03;1767488;78;20995;-58
2021/10/15 04:36:07;;;;;;;23.80;12.28;;;;;;;4.15;66.29;101284.23;1767376;80;21090;-58
2021/10/15 04:38:34;;;;;;;18.65;11.03;;;;;;;4.27;66.05;101289.83;1770541;80;22253;-58
2021/10/15 04:41:00;;;;;;;18.55;12.10;;;;;;;4.38;65.80;101280.28;1720855;81;21060;-58
2021/10/15 04:43:26;;;;;;;22.77;12.50;;;;;;;4.47;65.90;101285.57;1745661;80;21513;-58
2021/10/15 04:45:53;;;;;;;19.90;11.88;;;;;;;4.57;65.93;101290.83;1766234;78;21264;-60
2021/10/15 04:48:19;;;;;;;20.45;12.55;;;;;;;4.61;66.11;101293.70;1739094;80;22334;-58
2021/10/15 04:50:45;;;;;;;23.90;12.85;;;;;;;4.62;66.05;101286.28;1743235;80;21046;-58
2021/10/15 04:53:11;;;;;;;22.13;12.68;;;;;;;4.62;66.14;101294.10;1767678;78;21039;-57
2021/10/15 04:55:39;;;;;;;21.48;12.93;;;;;;;4.62;66.12;101295.84;1763870;80;21026;-56
2021/10/15 04:58:06;;;;;;;22.58;14.55;;;;;;;4.63;66.14;101296.24;1764037;80;21045;-58
2021/10/15 05:00:33;;;;;;;25.55;14.33;;;;;;;4.62;66.05;101294.53;1768850;78;21526;-57
2021/10/15 05:03:00;;;;;;;18.45;12.28;;;;;;;4.60;66.00;101291.98;1765633;78;21035;-58
2021/10/15 05:05:27;;;;;;;28.10;14.18;;;;;;;4.57;66.28;101296.05;1739147;80;21052;-58
2021/10/15 05:07:55;;;;;;;19.12;12.55;;;;;;;4.55;66.49;101292.62;1769549;78;21119;-57
2021/10/15 05:10:22;;;;;;;24.82;13.53;;;;;;;4.59;66.43;101289.00;1764645;80;21031;-57
2021/10/15 05:12:49;;;;;;;22.00;13.25;;;;;;;4.70;66.39;101294.23;1762469;78;21094;-57
2021/10/15 05:15:16;;;;;;;21.30;13.72;;;;;;;4.76;66.30;101292.23;1759063;78;21133;-57
2021/10/15 05:17:45;;;;;;;19.90;12.88;;;;;;;4.81;66.30;101291.58;1762804;80;21028;-57
2021/10/15 05:20:15;;;;;;;23.90;13.53;;;;;;;4.82;66.36;101289.81;1765377;78;21494;-58
2021/10/15 05:22:43;;;;;;;21.60;14.35;;;;;;;4.81;66.50;101292.88;1737500;80;21087;-59
2021/10/15 05:25:10;;;;;;;22.32;14.05;;;;;;;4.82;66.49;101286.77;1766580;78;21607;-58
2021/10/15 05:27:37;;;;;;;23.55;14.68;;;;;;;4.84;66.52;101297.11;1769649;79;21083;-56
2021/10/15 05:30:06;;;;;;;24.60;14.35;;;;;;;4.84;66.45;101299.71;1763710;78;21729;-58
2021/10/15 05:32:34;;;;;;;21.73;13.98;;;;;;;4.83;66.50;101304.55;1765347;78;21134;-57
2021/10/15 05:35:00;;;;;;;23.60;13.60;;;;;;;4.82;66.48;101301.55;1675354;82;21129;-58
2021/10/15 05:37:27;;;;;;;23.57;14.90;;;;;;;4.82;66.62;101304.16;1740548;78;21095;-58
2021/10/15 05:39:53;;;;;;;20.90;14.03;;;;;;;4.89;66.71;101308.66;1761698;78;21060;-58
2021/10/15 05:42:20;;;;;;;23.35;13.80;;;;;;;5.01;66.53;101302.48;1766886;78;21035;-57
2021/10/15 05:44:47;;;;;;;23.65;13.30;;;;;;;5.14;66.41;101307.17;1741873;80;21148;-57
2021/10/15 05:47:14;;;;;;;21.62;12.90;;;;;;;5.28;66.43;101309.19;1762620;79;21003;-57
2021/10/15 05:49:41;;;;;;;20.95;12.98;;;;;;;5.42;66.42;101304.70;1725248;80;21528;-56
2021/10/15 05:52:11;;;;;;;23.73;12.90;;;;;;;5.48;66.36;101299.19;1766648;79;21102;-58
2021/10/15 05:59:40;;;;;;;18.32;11.70;;;;;;;5.60;66.41;101311.72;1735125;80;21142;-57
2021/10/15 06:02:07;;;;;;;22.50;13.65;;;;;;;5.60;66.44;101314.33;1769364;79;21036;-56
2021/10/15 06:05:19;;;;;;;23.87;13.40;;;;;;;5.61;66.53;101310.78;1757029;79;21049;-57
2021/10/15 06:15:33;;;;;;;23.40;12.07;;;;;;;6.06;66.29;101310.95;1764651;80;20966;-57
2021/10/15 06:17:59;;;;;;;20.08;11.75;;;;;;;6.17;66.20;101312.22;1764810;79;21494;-58
2021/10/15 06:20:25;;;;;;;25.70;13.53;;;;;;;6.20;66.25;101304.23;1760912;79;20968;-58
2021/10/15 06:22:51;;;;;;;18.98;11.63;;;;;;;6.25;66.36;101308.32;1769342;79;21107;-57
2021/10/15 06:25:18;;;;;;;20.00;12.73;;;;;;;6.34;66.43;101313.59;1737895;80;21015;-57
2021/10/15 06:27:44;;;;;;;19.17;12.65;;;;;;;6.41;66.30;101308.45;1755463;79;21856;-57
2021/10/15 06:30:12;;;;;;;18.67;12.18;;;;;;;6.46;66.16;101306.47;1688266;82;21153;-57
2021/10/15 06:32:38;;;;;;;20.68;12.33;;;;;;;6.51;66.18;101314.09;1762817;79;20900;-57
2021/10/15 06:35:05;;;;;;;21.50;12.60;;;;;;;6.55;66.20;101309.09;1763007;80;21490;-57
2021/10/15 06:37:33;;;;;;;18.82;11.33;;;;;;;6.65;66.25;101309.50;1735681;80;21015;-58
2021/10/15 06:39:59;;;;;;;18.32;10.95;;;;;;;6.79;66.23;101317.53;1731084;80;21476;-59
2021/10/15 06:42:28;;;;;;;18.62;11.95;;;;;;;6.92;66.09;101313.83;1760628;79;21026;-58
2021/10/15 06:44:54;;;;;;;18.20;11.63;;;;;;;7.04;66.32;101310.61;1728068;80;21097;-55
2021/10/15 06:47:21;;;;;;;18.37;11.50;;;;;;;7.14;66.38;101304.42;1756687;80;21139;-57
2021/10/15 06:49:48;;;;;;;17.15;11.20;;;;;;;7.25;66.35;101302.11;1765958;79;21022;-58
2021/10/15 06:52:14;;;;;;;22.67;11.25;;;;;;;7.35;65.96;101302.49;1731992;80;21066;-58
2021/10/15 06:54:40;;;;;;;16.65;11.05;;;;;;;7.40;65.64;101297.02;1764839;79;21098;-57
2021/10/15 06:57:07;;;;;;;17.25;10.68;;;;;;;7.43;65.37;101297.70;1759335;79;21309;-57
2021/10/15 06:59:34;;;;;;;16.95;9.80;;;;;;;7.46;65.17;101291.92;1763753;80;21158;-58
2021/10/15 07:02:01;;;;;;;17.48;9.75;;;;;;;7.52;64.37;101295.06;1758167;79;21039;-57
2021/10/15 07:04:27;;;;;;;15.60;8.80;;;;;;;7.65;64.36;101295.27;1756449;80;21521;-58
2021/10/15 07:06:54;;;;;;;15.95;9.20;;;;;;;7.79;64.19;101292.73;1761135;80;21078;-58
2021/10/15 07:09:20;;;;;;;20.27;10.82;;;;;;;7.93;64.14;101293.77;1760045;80;21713;-58
2021/10/15 07:11:48;;;;;;;14.75;9.23;;;;;;;8.04;63.90;101293.20;1755383;80;21095;-58
2021/10/15 07:14:15;;;;;;;16.27;8.55;;;;;;;8.10;63.41;101292.40;1763211;79;21266;-59
2021/10/15 07:16:43;;;;;;;18.17;9.63;;;;;;;8.17;62.95;101283.26;1733830;80;21464;-58
2021/10/15 07:19:10;;;;;;;14.78;9.20;;;;;;;8.22;62.77;101285.63;1758700;80;21371;-58
2021/10/15 07:21:37;;;;;;;13.60;9.18;;;;;;;8.28;62.77;101291.83;1738099;80;21105;-58
2021/10/15 07:24:04;;;;;;;14.68;9.10;;;;;;;8.35;62.43;101291.88;1732476;80;21038;-57
2021/10/15 07:26:30;;;;;;;12.43;7.45;;;;;;;8.42;62.08;101295.45;1765134;79;21373;-59
2021/10/15 07:28:57;;;;;;;14.55;8.78;;;;;;;8.51;62.11;101294.50;1725677;80;21451;-58
2021/10/15 07:31:23;;;;;;;13.72;7.33;;;;;;;8.69;62.18;101290.44;1761975;80;21121;-58
2021/10/15 07:33:50;;;;;;;13.25;7.92;;;;;;;8.88;61.67;101284.98;1733212;80;21109;-58
2021/10/15 07:36:16;;;;;;;12.20;8.23;;;;;;;9.01;60.79;101283.33;1765616;80;21028;-58
2021/10/15 07:38:42;;;;;;;12.55;7.83;;;;;;;9.07;60.47;101279.48;1762241;80;21047;-58
2021/10/15 07:41:10;;;;;;;14.15;8.73;;;;;;;9.15;59.77;101281.67;1761614;80;21508;-57
2021/10/15 07:43:36;;;;;;;11.18;7.33;;;;;;;9.22;59.31;101275.94;1761299;80;21071;-58
2021/10/15 07:46:02;;;;;;;13.22;8.18;;;;;;;9.28;59.25;101278.20;1764571;79;21086;-58
2021/10/15 07:48:31;;;;;;;12.18;7.80;;;;;;;9.35;59.04;101285.25;1696195;82;21154;-58
2021/10/15 07:50:58;;;;;;;12.40;7.25;;;;;;;9.43;58.82;101276.44;1672640;84;21683;-58
2021/10/15 07:53:24;;;;;;;11.78;6.87;;;;;;;9.55;58.77;101276.16;1738829;80;21105;-59
2021/10/15 07:55:50;;;;;;;12.23;7.55;;;;;;;9.67;58.06;101279.33;1723046;80;22483;-58
2021/10/15 07:58:16;;;;;;;12.73;7.10;;;;;;;9.79;58.11;101274.25;1732756;81;21046;-58
2021/10/15 08:00:44;;;;;;;12.20;7.35;;;;;;;9.92;57.43;101279.56;1730863;80;21085;-59
2021/10/15 08:03:10;;;;;;;14.15;7.62;;;;;;;10.07;57.46;101275.13;1702757;82;21539;-57
2021/10/15 08:05:37;;;;;;;10.60;6.70;;;;;;;10.19;57.43;101275.20;1731021;80;20972;-59
2021/10/15 08:08:04;;;;;;;9.43;5.30;;;;;;;10.31;57.05;101274.88;1713291;82;21000;-57
2021/10/15 08:10:32;;;;;;;10.53;6.22;;;;;;;10.42;56.45;101268.94;1733063;81;21039;-57
2021/10/15 08:13:01;;;;;;;11.78;7.05;;;;;;;10.52;56.52;101272.68;1683446;83;21126;-57
2021/10/15 08:15:27;;;;;;;10.63;6.15;;;;;;;10.65;56.06;101279.77;1734947;81;21373;-57
2021/10/15 08:17:54;;;;;;;11.25;6.70;;;;;;;10.73;54.76;101278.78;1733339;80;21505;-57
2021/10/15 08:20:20;;;;;;;10.40;6.12;;;;;;;10.80;54.91;101274.78;1731513;80;21027;-57
2021/10/15 08:22:49;;;;;;;11.55;5.37;;;;;;;10.89;54.40;101273.33;1740635;81;20988;-58
2021/10/15 08:25:15;;;;;;;12.58;6.55;;;;;;;10.95;54.35;101268.97;1742739;80;21484;-58
2021/10/15 08:27:43;;;;;;;10.10;5.72;;;;;;;11.04;53.79;101260.91;1730115;80;20988;-57
2021/10/15 08:30:09;;;;;;;10.55;6.03;;;;;;;11.11;53.83;101258.22;1732506;80;21089;-58
2021/10/15 08:32:37;;;;;;;10.32;6.28;;;;;;;11.20;53.75;101263.36;1734294;81;21007;-58
2021/10/15 08:35:05;;;;;;;11.48;6.55;;;;;;;11.26;52.89;101251.92;1711582;82;21086;-59
2021/10/15 08:37:32;;;;;;;10.18;5.92;;;;;;;11.33;53.91;101251.86;1739833;80;21092;-59
2021/10/15 08:40:01;;;;;;;11.15;6.65;;;;;;;11.44;54.10;101252.91;1741404;80;21509;-58
2021/10/15 08:42:26;;;;;;;8.93;4.95;;;;;;;11.56;54.01;101245.45;1733131;80;21547;-58
2021/10/15 08:44:54;;;;;;;10.48;5.60;;;;;;;11.66;52.72;101239.05;1733942;80;21619;-59
2021/10/15 08:47:20;;;;;;;9.83;5.62;;;;;;;11.76;52.87;101239.24;1704352;82;21090;-58
2021/10/15 08:49:47;;;;;;;11.12;5.05;;;;;;;11.85;50.81;101239.89;1758023;79;22408;-57
2021/10/15 08:52:14;;;;;;;10.20;5.60;;;;;;;11.90;49.79;101240.40;1762070;80;21019;-58
2021/10/15 08:54:43;;;;;;;9.15;5.83;;;;;;;11.94;49.68;101238.44;1760942;79;21027;-59
2021/10/15 08:57:10;;;;;;;11.93;5.75;;;;;;;11.97;49.52;101232.47;1766760;80;21058;-57
2021/10/15 08:59:46;;;;;;;9.45;5.40;;;;;;;12.02;49.57;101232.11;1757760;80;21137;-57
2021/10/15 09:02:18;;;;;;;10.65;5.40;;;;;;;12.07;49.68;101233.96;1762430;80;21100;-58
2021/10/15 09:04:56;;;;;;;8.03;4.22;;;;;;;12.14;48.61;101226.41;1762872;80;21019;-58
2021/10/15 09:07:26;;;;;;;9.48;5.00;;;;;;;12.21;48.20;101216.63;1766455;80;21742;-57
2021/10/15 09:10:14;;;;;;;10.63;5.65;;;;;;;12.32;48.20;101225.06;1742424;79;20989;-57
2021/10/15 09:12:44;;;;;;;9.08;4.42;;;;;;;12.40;47.07;101216.58;1763383;80;22211;-57
2021/10/15 09:15:12;;;;;;;10.00;4.92;;;;;;;12.47;46.09;101216.97;1764250;79;21153;-57
2021/10/15 09:17:51;;;;;;;8.58;4.97;;;;;;;12.51;45.46;101218.41;1741269;80;21034;-57
2021/10/15 09:20:32;;;;;;;9.45;4.35;;;;;;;12.55;45.37;101218.07;1763067;79;22418;-56
2021/10/15 09:22:58;;;;;;;8.55;5.20;;;;;;;12.62;45.42;101232.98;1702873;82;21106;-58
2021/10/15 09:25:35;;;;;;;9.15;4.60;;;;;;;12.68;45.45;101218.48;1763364;79;21062;-57
2021/10/15 09:28:03;;;;;;;10.00;6.00;;;;;;;12.72;46.21;101219.44;1756803;80;22209;-58
2021/10/15 09:30:30;;;;;;;7.80;4.92;;;;;;;12.83;46.62;101219.47;1716525;80;21087;-57
2021/10/15 09:32:59;;;;;;;8.60;4.97;;;;;;;12.92;47.34;101207.84;1761292;79;21035;-57
2021/10/15 09:35:31;;;;;;;9.00;5.15;;;;;;;13.00;47.73;101208.92;1764635;79;21075;-58
2021/10/15 09:38:01;;;;;;;9.85;4.62;;;;;;;13.12;46.71;101203.66;1759569;80;21007;-58
2021/10/15 09:40:36;;;;;;;9.15;5.58;;;;;;;13.19;46.02;101204.86;1699364;83;21802;-58
2021/10/15 09:43:06;;;;;;;8.60;5.05;;;;;;;13.24;45.63;101195.26;1739369;80;26729;-58
2021/10/15 09:45:45;;;;;;;8.90;4.53;;;;;;;13.30;45.00;101195.61;1757380;80;20988;-59
2021/10/15 09:48:24;;;;;;;7.67;3.90;;;;;;;13.33;44.16;101191.91;1739503;80;21061;-59
2021/10/15 09:51:15;;;;;;;7.97;4.08;;;;;;;13.36;42.65;101188.56;1731155;80;21054;-57
2021/10/15 09:54:03;;;;;;;8.58;4.17;;;;;;;13.39;41.99;101188.79;1759629;79;21861;-57
2021/10/15 09:56:46;;;;;;;6.67;3.42;;;;;;;13.41;42.25;101180.25;1725433;79;21139;-56
2021/10/15 09:59:12;;;;;;;10.05;4.33;;;;;;;13.46;41.73;101187.33;1742898;80;21070;-58
2021/10/15 10:01:39;;;;;;;6.03;2.90;;;;;;;13.50;42.29;101178.67;1763753;79;21062;-59
2021/10/15 10:04:06;;;;;;;8.53;2.95;;;;;;;13.59;41.29;101181.09;1767645;79;21103;-57
2021/10/15 10:06:33;;;;;;;6.90;3.08;;;;;;;13.65;40.01;101172.64;1758950;79;21145;-57
2021/10/15 10:08:59;;;;;;;5.12;2.52;;;;;;;13.73;39.50;101176.37;1734615;80;22338;-59
2021/10/15 10:11:28;;;;;;;7.50;3.40;;;;;;;13.81;39.01;101172.26;1766608;79;21066;-57
2021/10/15 10:13:54;;;;;;;7.78;3.08;;;;;;;13.86;38.59;101177.52;1757411;79;21090;-58
2021/10/15 10:16:25;;;;;;;5.90;2.90;;;;;;;13.92;38.58;101166.45;1677280;82;21093;-57
2021/10/15 10:18:54;;;;;;;5.87;2.52;;;;;;;13.94;37.64;101167.16;1760091;79;21189;-58
2021/10/15 10:21:25;;;;;;;6.12;2.70;;;;;;;13.99;38.44;101158.02;1760071;80;21749;-58
2021/10/15 10:24:03;;;;;;;6.00;2.45;;;;;;;14.01;38.46;101162.20;1743413;80;21070;-58
2021/10/15 10:26:49;;;;;;;6.47;3.05;;;;;;;14.07;38.20;101159.52;1761159;79;21594;-58
2021/10/15 10:29:15;;;;;;;6.47;3.22;;;;;;;14.12;37.92;101155.55;1771481;79;21293;-58
2021/10/15 10:31:42;;;;;;;5.75;3.12;;;;;;;14.20;38.09;101152.73;1768397;80;21213;-57
2021/10/15 10:34:14;;;;;;;6.37;3.40;;;;;;;14.25;38.28;101156.67;1763783;79;21063;-61
2021/10/15 10:36:40;;;;;;;5.83;2.72;;;;;;;14.30;38.35;101143.89;1761081;80;21130;-58
2021/10/15 10:39:25;;;;;;;9.43;3.20;;;;;;;14.39;38.54;101157.33;1746894;80;21062;-59
2021/10/15 10:42:10;;;;;;;7.08;2.20;;;;;;;14.46;37.18;101139.48;1763106;79;21045;-58
2021/10/15 10:44:40;;;;;;;5.90;3.10;;;;;;;14.49;37.09;101141.02;1760981;80;22307;-57
2021/10/15 10:47:23;;;;;;;5.78;2.85;;;;;;;14.50;36.88;101135.59;1769310;79;21014;-58
2021/10/15 10:50:09;;;;;;;5.40;2.22;;;;;;;14.53;36.69;101135.83;1752563;80;21062;-58
2021/10/15 10:52:42;;;;;;;8.05;2.65;;;;;;;14.56;36.79;101138.69;1741532;80;21040;-57
2021/10/15 10:55:08;;;;;;;5.90;3.17;;;;;;;14.57;36.75;101139.89;1711184;80;21060;-57
2021/10/15 10:57:40;;;;;;;6.42;2.70;;;;;;;14.59;35.61;101139.33;1697345;80;21376;-57
2021/10/15 11:00:22;;;;;;;7.30;2.95;;;;;;;14.59;35.99;101130.52;1738609;80;21543;-59
2021/10/15 11:02:54;;;;;;;6.50;3.12;;;;;;;14.63;35.71;101127.98;1716560;81;21110;-58
2021/10/15 11:05:36;;;;;;;5.30;2.52;;;;;;;14.65;35.45;101122.06;1746614;80;21872;-59
2021/10/15 11:08:25;;;;;;;6.08;2.72;;;;;;;14.66;35.55;101126.41;1696418;81;21500;-58
2021/10/15 11:10:52;;;;;;;6.80;3.45;;;;;;;14.66;36.67;101120.61;1708276;82;21283;-57
2021/10/15 11:13:33;;;;;;;6.65;3.02;;;;;;;14.73;36.37;101128.87;1711608;82;21051;-58
2021/10/15 11:16:00;;;;;;;6.55;2.65;;;;;;;14.78;36.27;101124.51;1747708;80;21045;-58
2021/10/15 11:18:27;;;;;;;5.90;2.90;;;;;;;14.85;35.82;101123.00;1745419;80;21135;-58
2021/10/15 11:20:54;;;;;;;7.67;3.10;;;;;;;14.90;35.85;101121.28;1716965;80;21082;-58
2021/10/15 11:23:21;;;;;;;7.05;3.25;;;;;;;14.93;36.55;101108.60;1740324;80;21935;-58
2021/10/15 11:25:48;;;;;;;7.03;3.60;;;;;;;15.01;35.78;101114.08;1712912;80;21054;-58
2021/10/15 11:28:20;;;;;;;6.80;3.02;;;;;;;15.06;36.06;101104.37;1731184;80;21118;-58
2021/10/15 11:30:51;;;;;;;7.28;2.87;;;;;;;15.16;35.48;101100.44;1714395;80;21083;-58
2021/10/15 11:33:20;;;;;;;8.43;3.35;;;;;;;15.26;35.11;101087.21;1740655;80;21114;-57
2021/10/15 11:35:52;;;;;;;6.40;3.55;;;;;;;15.31;34.63;101086.31;1745393;80;21083;-58
2021/10/15 11:38:25;;;;;;;7.33;3.08;;;;;;;15.34;34.94;101085.55;1743361;80;21675;-58
2021/10/15 11:40:56;;;;;;;7.03;3.50;;;;;;;15.39;35.50;101076.69;1741256;80;21101;-59